createdAt,value
2018-12-18T00:00:47.123Z,11.67
2018-12-18T00:03:15.221Z,14.50
2018-12-18T00:05:42.686Z,16.70
2018-12-18T00:08:10.825Z,18.17
2018-12-18T00:10:44.711Z,14.43
2018-12-18T00:13:13.363Z,16.10
2018-12-18T00:15:40.854Z,14.73
2018-12-18T00:18:08.321Z,13.13
2018-12-18T00:20:35.817Z,23.27
2018-12-18T00:23:03.306Z,25.67
2018-12-18T00:25:31.895Z,14.43
2018-12-18T00:28:01.400Z,18.20
2018-12-18T00:30:28.966Z,10.77
2018-12-18T00:32:57.016Z,10.50
2018-12-18T00:35:24.486Z,11.33
2018-12-18T00:37:51.970Z,11.20
2018-12-18T00:40:19.631Z,13.90
2018-12-18T00:42:47.667Z,11.00
2018-12-18T00:45:15.713Z,11.97
2018-12-18T00:47:43.674Z,15.83
2018-12-18T00:50:11.528Z,12.60
2018-12-18T00:52:40.425Z,12.87
2018-12-18T00:55:08.621Z,14.17
2018-12-18T00:57:36.682Z,10.13
2018-12-18T01:00:05.270Z,15.67
2018-12-18T01:02:33.347Z,12.67
2018-12-18T01:05:00.825Z,12.50
2018-12-18T01:07:28.746Z,13.77
2018-12-18T01:09:56.754Z,11.93
2018-12-18T01:12:24.882Z,9.33
2018-12-18T01:14:52.382Z,13.97
2018-12-18T01:17:20.476Z,9.57
2018-12-18T01:19:47.980Z,12.73
2018-12-18T01:22:16.603Z,15.60
2018-12-18T01:24:44.495Z,14.13
2018-12-18T01:27:12.546Z,27.73
2018-12-18T01:29:40.865Z,16.47
2018-12-18T01:32:09.180Z,14.00
2018-12-18T01:34:36.652Z,9.60
2018-12-18T01:37:04.234Z,10.80
2018-12-18T01:39:32.441Z,9.47
2018-12-18T01:42:00.599Z,9.70
2018-12-18T01:44:28.084Z,8.07
2018-12-18T01:46:55.709Z,12.80
2018-12-18T01:49:23.693Z,8.90
2018-12-18T01:51:51.793Z,9.60
2018-12-18T01:54:19.380Z,11.80
2018-12-18T01:56:46.914Z,17.43
2018-12-18T01:59:16.242Z,11.70
2018-12-18T02:01:44.617Z,8.90
2018-12-18T02:04:12.491Z,8.47
2018-12-18T02:06:39.997Z,7.00
2018-12-18T02:09:07.850Z,10.87
2018-12-18T02:11:35.359Z,10.00
2018-12-18T02:14:03.569Z,13.90
2018-12-18T02:16:31.754Z,7.70
2018-12-18T02:18:59.829Z,10.20
2018-12-18T02:21:28.100Z,8.93
2018-12-18T02:23:57.151Z,10.33
2018-12-18T02:26:25.277Z,10.57
2018-12-18T02:28:53.353Z,12.23
2018-12-18T02:31:21.659Z,11.77
2018-12-18T02:33:49.703Z,9.87
2018-12-18T02:36:17.201Z,11.27
2018-12-18T02:38:44.705Z,8.73
2018-12-18T02:41:12.949Z,11.30
2018-12-18T02:43:40.501Z,9.00
2018-12-18T02:46:07.998Z,9.27
2018-12-18T02:48:36.141Z,9.70
2018-12-18T02:51:03.634Z,15.47
2018-12-18T02:53:32.383Z,13.50
2018-12-18T02:56:00.673Z,13.70
2018-12-18T02:58:29.050Z,14.63
2018-12-18T03:00:57.053Z,16.50
2018-12-18T03:03:25.605Z,11.07
2018-12-18T03:05:53.090Z,8.63
2018-12-18T03:08:20.561Z,11.43
2018-12-18T03:10:48.509Z,12.40
2018-12-18T03:13:16.684Z,12.87
2018-12-18T03:15:44.163Z,11.47
2018-12-18T03:18:12.348Z,13.30
2018-12-18T03:20:39.829Z,12.27
2018-12-18T03:23:07.883Z,15.30
2018-12-18T03:25:35.389Z,12.60
2018-12-18T03:28:04.019Z,6.90
2018-12-18T03:30:32.502Z,8.83
2018-12-18T03:33:01.597Z,10.70
2018-12-18T03:35:29.261Z,9.10
2018-12-18T03:37:56.735Z,11.67
2018-12-18T03:40:25.114Z,8.83
2018-12-18T03:42:53.077Z,10.10
2018-12-18T03:45:21.440Z,13.20
2018-12-18T03:47:49.542Z,11.70
2018-12-18T03:50:17.003Z,13.10
2018-12-18T03:52:45.185Z,13.03
2018-12-18T03:55:13.618Z,9.50
2018-12-18T03:57:41.529Z,10.73
2018-12-18T04:00:11.154Z,13.60
2018-12-18T04:02:39.209Z,12.83
2018-12-18T04:05:07.688Z,11.97
2018-12-18T04:07:36.920Z,13.23
2018-12-18T04:10:05.903Z,6.20
2018-12-18T04:12:35.223Z,5.67
2018-12-18T04:15:03.913Z,7.30
2018-12-18T04:17:31.401Z,8.30
2018-12-18T04:19:59.137Z,6.40
2018-12-18T04:22:26.682Z,11.27
2018-12-18T04:24:54.394Z,9.37
2018-12-18T04:27:22.649Z,11.80
2018-12-18T04:29:51.248Z,10.93
2018-12-18T04:32:20.237Z,8.37
2018-12-18T04:34:47.742Z,9.83
2018-12-18T04:37:15.217Z,9.37
2018-12-18T04:39:43.853Z,11.73
2018-12-18T04:42:12.269Z,8.23
2018-12-18T04:44:40.502Z,11.43
2018-12-18T04:47:07.990Z,8.70
2018-12-18T04:49:35.478Z,11.57
2018-12-18T04:52:03.651Z,8.17
2018-12-18T04:54:31.141Z,7.17
2018-12-18T04:56:59.343Z,8.80
2018-12-18T04:59:27.453Z,6.60
2018-12-18T05:01:55.724Z,6.37
2018-12-18T05:04:23.939Z,6.57
2018-12-18T05:06:52.003Z,6.57
2018-12-18T05:09:19.491Z,8.23
2018-12-18T05:11:46.971Z,10.40
2018-12-18T05:14:15.245Z,13.30
2018-12-18T05:16:44.277Z,10.03
2018-12-18T05:19:13.125Z,7.70
2018-12-18T05:21:40.723Z,8.80
2018-12-18T05:24:08.246Z,8.30
2018-12-18T05:26:36.150Z,7.67
2018-12-18T05:29:04.266Z,9.70
2018-12-18T05:31:32.611Z,9.40
2018-12-18T05:34:00.737Z,8.77
2018-12-18T05:36:28.712Z,10.67
2018-12-18T05:38:57.273Z,7.13
2018-12-18T05:41:25.836Z,9.67
2018-12-18T05:43:54.052Z,13.03
2018-12-18T05:46:21.568Z,8.77
2018-12-18T05:48:49.844Z,8.03
2018-12-18T05:51:18.809Z,10.73
2018-12-18T05:53:46.652Z,13.27
2018-12-18T05:56:14.780Z,12.90
2018-12-18T05:58:43.502Z,19.17
2018-12-18T06:01:11.612Z,10.83
2018-12-18T06:03:39.554Z,9.43
2018-12-18T06:06:07.095Z,13.43
2018-12-18T06:08:34.579Z,9.53
2018-12-18T06:11:02.228Z,12.00
2018-12-18T06:13:30.449Z,11.60
2018-12-18T06:15:57.989Z,10.27
2018-12-18T06:18:25.627Z,11.23
2018-12-18T06:20:53.238Z,13.10
2018-12-18T06:23:22.609Z,13.30
2018-12-18T06:25:50.289Z,12.17
2018-12-18T06:28:19.124Z,9.93
2018-12-18T06:30:47.300Z,9.97
2018-12-18T06:33:14.772Z,14.30
2018-12-18T06:35:42.869Z,8.27
2018-12-18T06:38:10.527Z,7.77
2018-12-18T06:40:39.797Z,9.23
2018-12-18T06:43:08.204Z,7.20
2018-12-18T06:45:36.133Z,11.23
2018-12-18T06:48:04.026Z,11.20
2018-12-18T06:50:31.562Z,7.13
2018-12-18T06:52:59.775Z,6.53
2018-12-18T06:55:27.257Z,6.37
2018-12-18T06:57:55.825Z,5.63
2018-12-18T07:00:23.313Z,8.67
2018-12-18T07:02:52.708Z,7.90
2018-12-18T07:05:20.180Z,5.83
2018-12-18T07:07:47.676Z,7.57
2018-12-18T07:10:15.486Z,12.70
2018-12-18T07:12:43.509Z,14.80
2018-12-18T07:15:11.685Z,10.53
2018-12-18T07:17:39.815Z,10.83
2018-12-18T07:20:08.289Z,11.23
2018-12-18T07:22:35.778Z,11.40
2018-12-18T07:25:03.517Z,10.33
2018-12-18T07:27:32.401Z,10.40
2018-12-18T07:30:00.484Z,10.00
2018-12-18T07:32:28.581Z,10.43
2018-12-18T07:34:56.229Z,11.70
2018-12-18T07:37:24.397Z,10.90
2018-12-18T07:39:52.173Z,9.27
2018-12-18T07:42:20.397Z,10.40
2018-12-18T07:44:48.494Z,12.33
2018-12-18T07:47:16.648Z,9.67
2018-12-18T07:49:44.804Z,9.23
2018-12-18T07:52:12.879Z,7.20
2018-12-18T07:54:41.264Z,10.10
2018-12-18T07:57:09.650Z,9.43
2018-12-18T07:59:37.870Z,7.50
2018-12-18T08:02:06.010Z,9.90
2018-12-18T08:04:33.502Z,15.27
2018-12-18T08:07:01.440Z,9.47
2018-12-18T08:09:29.149Z,10.43
2018-12-18T08:11:56.629Z,9.20
2018-12-18T08:14:24.588Z,8.80
2018-12-18T08:16:52.081Z,6.43
2018-12-18T08:19:20.313Z,10.33
2018-12-18T08:21:47.777Z,13.47
2018-12-18T08:24:15.370Z,16.03
2018-12-18T08:26:42.934Z,12.17
2018-12-18T08:29:10.925Z,6.33
2018-12-18T08:31:38.905Z,6.20
2018-12-18T08:34:07.109Z,6.60
2018-12-18T08:36:34.615Z,6.03
2018-12-18T08:39:02.108Z,7.53
2018-12-18T08:41:30.236Z,5.70
2018-12-18T08:43:58.267Z,6.83
2018-12-18T08:46:26.569Z,5.40
2018-12-18T08:48:54.861Z,7.73
2018-12-18T08:51:23.029Z,8.17
2018-12-18T08:53:50.525Z,8.50
2018-12-18T08:56:18.104Z,9.03
2018-12-18T08:58:46.621Z,6.67
2018-12-18T09:01:14.596Z,9.67
2018-12-18T09:03:43.120Z,7.70
2018-12-18T09:06:11.444Z,8.70
2018-12-18T09:08:38.941Z,5.57
2018-12-18T09:11:06.421Z,6.30
2018-12-18T09:13:34.264Z,5.97
2018-12-18T09:16:02.460Z,5.90
2018-12-18T09:18:29.938Z,6.10
2018-12-18T09:20:58.648Z,4.90
2018-12-18T09:23:26.267Z,4.90
2018-12-18T09:25:54.316Z,5.33
2018-12-18T09:28:22.546Z,7.80
2018-12-18T09:30:50.060Z,10.93
2018-12-18T09:33:18.188Z,7.13
2018-12-18T09:35:49.650Z,7.40
2018-12-18T09:38:20.972Z,6.60
2018-12-18T09:40:56.748Z,5.23
2018-12-18T09:43:29.900Z,6.03
2018-12-18T09:45:57.980Z,8.70
2018-12-18T09:48:25.588Z,8.47
2018-12-18T09:50:53.749Z,9.57
2018-12-18T09:53:21.980Z,6.00
2018-12-18T09:55:49.468Z,7.03
2018-12-18T09:58:17.702Z,5.60
2018-12-18T10:00:46.148Z,5.57
2018-12-18T10:03:14.676Z,7.40
2018-12-18T10:05:42.326Z,5.40
2018-12-18T10:08:10.586Z,7.30
2018-12-18T10:10:38.457Z,8.00
2018-12-18T10:13:06.830Z,6.07
2018-12-18T10:15:34.306Z,8.30
2018-12-18T10:18:01.791Z,8.57
2018-12-18T10:20:29.524Z,5.93
2018-12-18T10:22:57.053Z,5.90
2018-12-18T10:25:25.489Z,5.70
2018-12-18T10:27:54.566Z,7.63
2018-12-18T10:30:22.975Z,5.60
2018-12-18T10:32:50.919Z,6.03
2018-12-18T10:35:18.987Z,5.00
2018-12-18T10:37:47.090Z,5.17
2018-12-18T10:40:14.558Z,9.53
2018-12-18T10:42:42.950Z,10.33
2018-12-18T10:45:14.787Z,5.93
2018-12-18T10:47:42.348Z,5.97
2018-12-18T10:50:09.990Z,8.37
2018-12-18T10:52:37.948Z,5.47
2018-12-18T10:55:06.259Z,18.40
2018-12-18T10:57:34.946Z,11.10
2018-12-18T11:00:04.643Z,7.70
2018-12-18T11:02:32.170Z,5.27
2018-12-18T11:04:59.659Z,4.73
2018-12-18T11:07:27.805Z,5.80
2018-12-18T11:09:55.284Z,6.27
2018-12-18T11:12:28.496Z,3.90
2018-12-18T11:14:57.108Z,5.27
2018-12-18T11:17:24.609Z,6.20
2018-12-18T11:19:52.066Z,6.77
2018-12-18T11:22:19.613Z,7.90
2018-12-18T11:24:47.593Z,8.40
2018-12-18T11:27:15.580Z,4.30
2018-12-18T11:29:45.145Z,5.50
2018-12-18T11:32:12.705Z,4.30
2018-12-18T11:34:41.753Z,3.90
2018-12-18T11:37:09.241Z,4.23
2018-12-18T11:39:36.713Z,5.73
2018-12-18T11:42:04.625Z,3.90
2018-12-18T11:44:32.108Z,5.90
2018-12-18T11:46:59.572Z,4.00
2018-12-18T11:49:27.116Z,4.37
2018-12-18T11:51:55.172Z,4.00
2018-12-18T11:54:22.999Z,3.57
2018-12-18T11:56:52.217Z,4.20
2018-12-18T11:59:19.718Z,4.70
2018-12-18T12:01:48.014Z,3.83
2018-12-18T12:04:15.998Z,4.40
2018-12-18T12:06:44.180Z,8.97
2018-12-18T12:09:12.248Z,5.07
2018-12-18T12:11:40.462Z,5.43
2018-12-18T12:14:08.716Z,5.87
2018-12-18T12:16:36.190Z,4.03
2018-12-18T12:19:03.704Z,4.23
2018-12-18T12:21:32.016Z,5.70
2018-12-18T12:23:59.526Z,6.00
2018-12-18T12:26:33.436Z,8.37
2018-12-18T12:29:01.883Z,4.83
2018-12-18T12:31:30.469Z,6.83
2018-12-18T12:33:58.551Z,4.50
2018-12-18T12:36:29.677Z,4.47
2018-12-18T12:38:56.137Z,5.13
2018-12-18T12:41:24.556Z,4.73
2018-12-18T12:43:52.037Z,7.33
2018-12-18T12:46:19.547Z,3.50
2018-12-18T12:48:54.976Z,3.80
2018-12-18T12:51:24.211Z,3.03
2018-12-18T12:53:52.315Z,6.40
2018-12-18T12:56:19.805Z,3.80
2018-12-18T12:58:47.771Z,3.20
2018-12-18T13:01:15.289Z,4.70
2018-12-18T13:03:42.763Z,4.60
2018-12-18T13:06:10.266Z,6.87
2018-12-18T13:08:38.888Z,5.07
2018-12-18T13:11:06.379Z,4.90
2018-12-18T13:13:34.627Z,4.10
2018-12-18T13:16:02.121Z,4.60
2018-12-18T13:18:31.289Z,4.50
2018-12-18T13:20:59.448Z,3.30
2018-12-18T13:23:27.452Z,4.10
2018-12-18T13:25:55.612Z,4.23
2018-12-18T13:28:23.644Z,4.37
2018-12-18T13:30:51.969Z,4.17
2018-12-18T13:33:19.516Z,4.23
2018-12-18T13:35:48.086Z,4.10
2018-12-18T13:38:15.578Z,4.40
2018-12-18T13:40:43.872Z,5.10
2018-12-18T13:43:12.142Z,4.97
2018-12-18T13:45:39.663Z,4.63
2018-12-18T13:48:07.162Z,4.53
2018-12-18T13:50:35.249Z,4.73
2018-12-18T13:53:03.248Z,3.30
2018-12-18T13:55:36.516Z,3.70
2018-12-18T13:58:00.770Z,4.00
2018-12-18T14:00:28.293Z,3.03
2018-12-18T14:02:55.783Z,4.70
2018-12-18T14:05:23.276Z,4.20
2018-12-18T14:07:50.754Z,4.40
2018-12-18T14:10:18.386Z,8.57
2018-12-18T14:12:50.804Z,5.00
2018-12-18T14:15:19.612Z,4.63
2018-12-18T14:17:47.122Z,4.90
2018-12-18T14:20:14.625Z,5.70
2018-12-18T14:22:43.114Z,4.90
2018-12-18T14:25:10.711Z,4.50
2018-12-18T14:27:38.877Z,5.70
2018-12-18T14:30:07.106Z,5.10
2018-12-18T14:32:35.815Z,6.13
2018-12-18T14:35:04.185Z,6.17
2018-12-18T14:37:31.668Z,5.93
2018-12-18T14:39:59.641Z,4.90
2018-12-18T14:42:28.035Z,5.00
2018-12-18T14:44:55.501Z,4.50
2018-12-18T14:47:24.060Z,6.50
2018-12-18T14:49:51.541Z,7.53
2018-12-18T14:52:19.626Z,6.37
2018-12-18T14:54:47.237Z,5.13
2018-12-18T14:57:15.458Z,6.17
2018-12-18T14:59:43.070Z,4.30
2018-12-18T15:02:10.562Z,4.50
2018-12-18T15:04:38.172Z,6.60
2018-12-18T15:07:05.683Z,7.03
2018-12-18T15:09:33.569Z,6.20
2018-12-18T15:12:01.202Z,4.87
2018-12-18T15:14:29.443Z,4.57
2018-12-18T15:16:56.922Z,4.70
2018-12-18T15:19:25.127Z,5.30
2018-12-18T15:21:53.129Z,4.30
2018-12-18T15:24:21.436Z,5.17
2018-12-18T15:26:49.469Z,4.40
2018-12-18T15:29:18.285Z,6.27
2018-12-18T15:31:46.578Z,4.90
2018-12-18T15:34:14.571Z,5.20
2018-12-18T15:36:42.050Z,4.60
2018-12-18T15:39:10.153Z,9.03
2018-12-18T15:41:38.981Z,8.23
2018-12-18T15:44:07.091Z,8.10
2018-12-18T15:46:35.242Z,9.63
2018-12-18T15:49:03.901Z,11.97
2018-12-18T15:51:32.933Z,17.73
2018-12-18T15:54:00.422Z,11.53
2018-12-18T15:56:28.454Z,9.80
2018-12-18T15:58:56.758Z,11.50
2018-12-18T16:01:24.562Z,6.37
2018-12-18T16:03:52.027Z,7.53
2018-12-18T16:06:19.562Z,5.60
2018-12-18T16:08:47.149Z,37.53
2018-12-18T16:11:14.701Z,28.30
2018-12-18T16:13:43.268Z,13.93
2018-12-18T16:16:11.726Z,7.80
2018-12-18T16:18:39.854Z,9.37
2018-12-18T16:21:07.396Z,7.87
2018-12-18T16:23:35.550Z,8.30
2018-12-18T16:26:03.473Z,5.60
2018-12-18T16:28:32.339Z,5.30
2018-12-18T16:31:00.718Z,6.30
2018-12-18T16:33:28.211Z,5.73
2018-12-18T16:35:55.831Z,6.10
2018-12-18T16:38:23.360Z,4.90
2018-12-18T16:40:52.416Z,5.30
2018-12-18T16:43:20.270Z,6.20
2018-12-18T16:45:48.323Z,5.53
2018-12-18T16:48:16.219Z,11.00
2018-12-18T16:50:43.709Z,7.53
2018-12-18T16:53:11.521Z,6.23
2018-12-18T16:55:39.486Z,10.83
2018-12-18T16:58:08.175Z,7.30
2018-12-18T17:00:35.726Z,4.47
2018-12-18T17:03:03.342Z,5.33
2018-12-18T17:05:31.412Z,5.90
2018-12-18T17:07:58.894Z,6.80
2018-12-18T17:10:26.402Z,5.87
2018-12-18T17:12:55.774Z,6.23
2018-12-18T17:15:24.774Z,5.03
2018-12-18T17:17:53.459Z,4.70
2018-12-18T17:20:21.423Z,5.73
2018-12-18T17:22:49.572Z,4.20
2018-12-18T17:25:17.526Z,5.47
2018-12-18T17:27:45.959Z,8.07
2018-12-18T17:30:14.963Z,4.67
2018-12-18T17:32:42.536Z,5.63
2018-12-18T17:35:10.045Z,4.07
2018-12-18T17:37:39.178Z,5.83
2018-12-18T17:40:08.737Z,4.43
2018-12-18T17:42:37.370Z,4.90
2018-12-18T17:45:06.155Z,5.50
2018-12-18T17:47:33.644Z,6.00
2018-12-18T17:50:01.445Z,4.40
2018-12-18T17:52:29.900Z,4.93
2018-12-18T17:54:57.405Z,6.60
2018-12-18T17:57:25.525Z,4.43
2018-12-18T17:59:53.669Z,6.20
2018-12-18T18:02:22.310Z,4.20
2018-12-18T18:04:49.898Z,4.10
2018-12-18T18:07:17.372Z,5.43
2018-12-18T18:09:44.937Z,4.30
2018-12-18T18:12:13.185Z,4.37
2018-12-18T18:14:41.261Z,4.20
2018-12-18T18:17:08.857Z,3.70
2018-12-18T18:19:36.996Z,5.27
2018-12-18T18:22:04.589Z,5.00
2018-12-18T18:24:32.849Z,5.00
2018-12-18T18:27:01.409Z,4.00
2018-12-18T18:29:30.026Z,4.20
2018-12-18T18:31:58.097Z,4.57
2018-12-18T18:34:26.273Z,4.77
2018-12-18T18:36:53.783Z,4.20
2018-12-18T18:39:21.940Z,4.47
2018-12-18T19:02:15.136Z,4.60
2018-12-18T19:04:43.182Z,4.07
2018-12-18T19:07:10.716Z,3.90
2018-12-18T19:09:39.173Z,4.30
2018-12-18T19:12:07.212Z,4.33
2018-12-18T19:14:35.254Z,5.40
2018-12-18T19:17:04.048Z,4.87
2018-12-18T19:19:32.177Z,4.70
2018-12-18T19:22:00.457Z,5.10
2018-12-18T19:24:29.008Z,5.67
2018-12-18T19:26:57.553Z,4.10
2018-12-18T19:29:26.045Z,6.00
2018-12-18T19:49:13.762Z,4.20
2018-12-18T19:51:42.104Z,3.73
2018-12-18T19:54:09.973Z,3.47
2018-12-18T19:56:38.073Z,3.30
2018-12-18T19:59:10.798Z,3.07
2018-12-18T20:01:36.352Z,3.17
2018-12-18T20:04:04.793Z,3.40
2018-12-18T20:06:33.065Z,3.70
2018-12-18T20:09:01.470Z,6.13
2018-12-18T20:11:29.472Z,6.10
2018-12-18T20:13:57.778Z,3.97
2018-12-18T20:16:26.039Z,5.20
2018-12-18T20:18:54.886Z,3.57
2018-12-18T20:21:24.234Z,3.53
2018-12-18T20:23:52.214Z,3.43
2018-12-18T20:26:20.470Z,2.90
2018-12-18T20:28:49.029Z,2.30
2018-12-18T20:31:16.944Z,2.43
2018-12-18T20:33:45.756Z,3.03
2018-12-18T20:36:13.730Z,2.40
2018-12-18T20:38:42.734Z,2.60
2018-12-18T20:41:11.312Z,2.93
2018-12-18T20:43:40.196Z,3.20
2018-12-18T20:46:08.477Z,3.20
2018-12-18T20:48:37.882Z,2.50
2018-12-18T20:51:06.910Z,4.17
2018-12-18T20:53:34.424Z,4.73
2018-12-18T20:56:02.308Z,2.90
2018-12-18T20:58:31.691Z,2.63
2018-12-18T21:00:59.699Z,2.87
2018-12-18T21:03:28.246Z,5.43
2018-12-18T21:05:55.754Z,2.77
2018-12-18T21:08:23.733Z,2.63
2018-12-18T21:10:52.422Z,9.13
2018-12-18T21:13:28.482Z,2.03
2018-12-18T21:15:57.471Z,3.53
2018-12-18T21:18:26.114Z,2.40
2018-12-18T21:20:54.647Z,2.27
2018-12-18T21:23:23.185Z,4.10
2018-12-18T21:25:50.686Z,2.90
2018-12-18T21:28:18.854Z,2.20
2018-12-18T21:30:47.359Z,2.13
2018-12-18T21:33:15.438Z,2.23
2018-12-18T21:35:43.907Z,2.07
2018-12-18T21:38:12.897Z,3.00
2018-12-18T21:40:40.502Z,2.23
2018-12-18T21:43:09.594Z,2.60
2018-12-18T21:45:38.094Z,3.97
2018-12-18T21:48:06.554Z,2.27
2018-12-18T21:50:34.714Z,2.63
2018-12-18T21:53:02.205Z,2.33
2018-12-18T21:55:31.091Z,2.10
2018-12-18T21:57:59.611Z,1.97
2018-12-18T22:00:27.731Z,2.33
2018-12-18T22:02:56.597Z,2.20
2018-12-18T22:05:24.484Z,2.07
2018-12-18T22:07:52.709Z,3.80
2018-12-18T22:10:21.283Z,3.33
2018-12-18T22:12:48.901Z,2.43
2018-12-18T22:15:17.748Z,2.00
2018-12-18T22:17:46.896Z,1.70
2018-12-18T22:20:15.128Z,1.83
2018-12-18T22:22:44.427Z,2.07
2018-12-18T22:25:12.729Z,1.87
2018-12-18T22:27:42.415Z,1.80
2018-12-18T22:30:10.893Z,2.50
2018-12-18T22:32:38.647Z,1.90
2018-12-18T22:35:06.445Z,3.00
2018-12-18T22:37:34.160Z,1.87
2018-12-18T22:40:02.414Z,1.70
2018-12-18T22:42:31.779Z,1.90
2018-12-18T22:45:00.074Z,2.00
2018-12-18T22:47:29.166Z,2.27
2018-12-18T22:49:57.026Z,1.97
2018-12-18T22:52:25.314Z,1.80
2018-12-18T22:54:53.207Z,1.70
2018-12-18T22:57:20.697Z,2.03
2018-12-18T22:59:48.306Z,1.40
2018-12-18T23:02:16.930Z,1.80
2018-12-18T23:04:45.521Z,1.40
2018-12-18T23:07:13.383Z,1.67
2018-12-18T23:09:41.864Z,1.50
2018-12-18T23:12:09.484Z,1.53
2018-12-18T23:14:38.330Z,1.77
2018-12-18T23:17:07.529Z,1.67
2018-12-18T23:19:36.108Z,1.40
2018-12-18T23:22:04.265Z,1.63
2018-12-18T23:24:33.222Z,1.73
2018-12-18T23:27:01.781Z,1.73
2018-12-18T23:29:31.092Z,1.63
2018-12-18T23:31:58.912Z,1.50
2018-12-18T23:34:32.817Z,1.50
2018-12-18T23:36:56.703Z,1.53
2018-12-18T23:39:24.178Z,1.30
2018-12-18T23:41:52.485Z,1.80
2018-12-18T23:44:20.540Z,1.40
2018-12-18T23:46:48.020Z,1.47
2018-12-18T23:49:16.079Z,1.63
2018-12-18T23:51:43.536Z,1.60
2018-12-18T23:54:11.513Z,1.73
2018-12-18T23:56:39.617Z,1.73
2018-12-18T23:59:07.612Z,5.50
